sensor_id;sensor_type;location;lat;lon;timestamp;temperature;humidity
4964;DHT22;2497;47.410;9.740;2024-02-16T00:00:00;7.60;99.90
4964;DHT22;2497;47.410;9.740;2024-02-16T00:02:27;7.60;99.90
4964;DHT22;2497;47.410;9.740;2024-02-16T00:04:54;7.60;99.90
4964;DHT22;2497;47.410;9.740;2024-02-16T00:07:21;7.70;99.90
4964;DHT22;2497;47.410;9.740;2024-02-16T00:09:48;7.70;99.90
4964;DHT22;2497;47.410;9.740;2024-02-16T00:12:16;7.80;99.90
4964;DHT22;2497;47.410;9.740;2024-02-16T00:14:43;7.80;99.90
4964;DHT22;2497;47.410;9.740;2024-02-16T00:17:11;7.80;99.90
4964;DHT22;2497;47.410;9.740;2024-02-16T00:19:38;7.90;99.90
4964;DHT22;2497;47.410;9.740;2024-02-16T00:22:05;7.90;99.90
4964;DHT22;2497;47.410;9.740;2024-02-16T00:24:34;7.90;99.90
4964;DHT22;2497;47.410;9.740;2024-02-16T00:27:01;8.10;99.90
4964;DHT22;2497;47.410;9.740;2024-02-16T00:29:30;8.10;99.90
4964;DHT22;2497;47.410;9.740;2024-02-16T00:31:58;8.00;99.90
4964;DHT22;2497;47.410;9.740;2024-02-16T00:34:25;8.00;99.90
4964;DHT22;2497;47.410;9.740;2024-02-16T00:36:53;7.90;99.90
4964;DHT22;2497;47.410;9.740;2024-02-16T00:39:20;7.80;99.90
4964;DHT22;2497;47.410;9.740;2024-02-16T00:41:51;7.80;99.90
4964;DHT22;2497;47.410;9.740;2024-02-16T00:44:18;7.70;99.90
4964;DHT22;2497;47.410;9.740;2024-02-16T00:46:46;7.70;99.90
4964;DHT22;2497;47.410;9.740;2024-02-16T00:49:13;7.60;99.90
4964;DHT22;2497;47.410;9.740;2024-02-16T00:51:40;7.60;99.90
4964;DHT22;2497;47.410;9.740;2024-02-16T00:54:07;7.60;99.90
4964;DHT22;2497;47.410;9.740;2024-02-16T00:56:35;7.70;99.90
4964;DHT22;2497;47.410;9.740;2024-02-16T00:59:04;7.80;99.90
4964;DHT22;2497;47.410;9.740;2024-02-16T01:01:34;7.80;99.90
4964;DHT22;2497;47.410;9.740;2024-02-16T01:04:03;7.90;99.90
4964;DHT22;2497;47.410;9.740;2024-02-16T01:06:30;7.80;99.90
4964;DHT22;2497;47.410;9.740;2024-02-16T01:08:57;7.80;99.90
4964;DHT22;2497;47.410;9.740;2024-02-16T01:11:24;7.80;99.90
4964;DHT22;2497;47.410;9.740;2024-02-16T01:13:51;7.80;99.90
4964;DHT22;2497;47.410;9.740;2024-02-16T01:16:18;7.80;99.90
4964;DHT22;2497;47.410;9.740;2024-02-16T01:18:45;7.70;99.90
4964;DHT22;2497;47.410;9.740;2024-02-16T01:21:14;7.70;99.90
4964;DHT22;2497;47.410;9.740;2024-02-16T01:23:41;7.60;99.90
4964;DHT22;2497;47.410;9.740;2024-02-16T01:26:08;7.60;99.90
4964;DHT22;2497;47.410;9.740;2024-02-16T01:28:35;7.60;99.90
4964;DHT22;2497;47.410;9.740;2024-02-16T01:31:02;7.50;99.90
4964;DHT22;2497;47.410;9.740;2024-02-16T01:33:29;7.50;99.90
4964;DHT22;2497;47.410;9.740;2024-02-16T01:35:58;7.40;99.90
4964;DHT22;2497;47.410;9.740;2024-02-16T01:38:27;7.40;99.90
4964;DHT22;2497;47.410;9.740;2024-02-16T01:40:54;7.30;99.90
4964;DHT22;2497;47.410;9.740;2024-02-16T01:43:21;7.30;99.90
4964;DHT22;2497;47.410;9.740;2024-02-16T01:45:48;7.30;99.90
4964;DHT22;2497;47.410;9.740;2024-02-16T01:48:15;7.30;99.90
4964;DHT22;2497;47.410;9.740;2024-02-16T01:50:43;7.30;99.90
4964;DHT22;2497;47.410;9.740;2024-02-16T01:53:11;7.40;99.90
4964;DHT22;2497;47.410;9.740;2024-02-16T01:55:40;7.40;99.90
4964;DHT22;2497;47.410;9.740;2024-02-16T01:58:07;7.30;99.90
4964;DHT22;2497;47.410;9.740;2024-02-16T02:00:34;7.40;99.90
4964;DHT22;2497;47.410;9.740;2024-02-16T02:03:01;7.60;99.90
4964;DHT22;2497;47.410;9.740;2024-02-16T02:05:29;7.50;99.90
4964;DHT22;2497;47.410;9.740;2024-02-16T02:07:56;7.50;99.90
4964;DHT22;2497;47.410;9.740;2024-02-16T02:10:23;7.40;99.90
4964;DHT22;2497;47.410;9.740;2024-02-16T02:12:51;7.30;99.90
4964;DHT22;2497;47.410;9.740;2024-02-16T02:15:18;7.30;99.90
4964;DHT22;2497;47.410;9.740;2024-02-16T02:17:45;7.20;99.90
4964;DHT22;2497;47.410;9.740;2024-02-16T02:20:12;7.30;99.90
4964;DHT22;2497;47.410;9.740;2024-02-16T02:22:41;7.20;99.90
4964;DHT22;2497;47.410;9.740;2024-02-16T02:25:08;7.20;99.90
4964;DHT22;2497;47.410;9.740;2024-02-16T02:27:36;7.20;99.90
4964;DHT22;2497;47.410;9.740;2024-02-16T02:30:04;7.30;99.90
4964;DHT22;2497;47.410;9.740;2024-02-16T02:32:32;7.20;99.90
4964;DHT22;2497;47.410;9.740;2024-02-16T02:35:00;7.10;99.90
4964;DHT22;2497;47.410;9.740;2024-02-16T02:37:27;7.10;99.90
4964;DHT22;2497;47.410;9.740;2024-02-16T02:39:56;7.20;99.90
4964;DHT22;2497;47.410;9.740;2024-02-16T02:42:23;7.10;99.90
4964;DHT22;2497;47.410;9.740;2024-02-16T02:44:50;7.00;99.90
4964;DHT22;2497;47.410;9.740;2024-02-16T02:47:20;7.10;99.90
4964;DHT22;2497;47.410;9.740;2024-02-16T02:49:47;7.00;99.90
4964;DHT22;2497;47.410;9.740;2024-02-16T02:52:15;7.10;99.90
4964;DHT22;2497;47.410;9.740;2024-02-16T02:54:42;7.10;99.90
4964;DHT22;2497;47.410;9.740;2024-02-16T02:57:11;7.00;99.90
4964;DHT22;2497;47.410;9.740;2024-02-16T02:59:38;6.90;99.90
4964;DHT22;2497;47.410;9.740;2024-02-16T03:02:05;6.90;99.90
4964;DHT22;2497;47.410;9.740;2024-02-16T03:04:32;6.80;99.90
4964;DHT22;2497;47.410;9.740;2024-02-16T03:06:59;6.70;99.90
4964;DHT22;2497;47.410;9.740;2024-02-16T03:09:26;6.60;99.90
4964;DHT22;2497;47.410;9.740;2024-02-16T03:11:53;6.60;99.90
4964;DHT22;2497;47.410;9.740;2024-02-16T03:14:21;6.60;99.90
4964;DHT22;2497;47.410;9.740;2024-02-16T03:16:48;6.60;99.90
4964;DHT22;2497;47.410;9.740;2024-02-16T03:19:15;6.60;99.90
4964;DHT22;2497;47.410;9.740;2024-02-16T03:21:42;6.60;99.90
4964;DHT22;2497;47.410;9.740;2024-02-16T03:24:09;6.60;99.90
4964;DHT22;2497;47.410;9.740;2024-02-16T03:26:36;6.60;99.90
4964;DHT22;2497;47.410;9.740;2024-02-16T03:29:03;6.60;99.90
4964;DHT22;2497;47.410;9.740;2024-02-16T03:31:32;6.50;99.90
4964;DHT22;2497;47.410;9.740;2024-02-16T03:33:59;6.60;99.90
4964;DHT22;2497;47.410;9.740;2024-02-16T03:36:26;6.60;99.90
4964;DHT22;2497;47.410;9.740;2024-02-16T03:38:53;6.60;99.90
4964;DHT22;2497;47.410;9.740;2024-02-16T03:41:21;6.60;99.90
4964;DHT22;2497;47.410;9.740;2024-02-16T03:43:48;6.60;99.90
4964;DHT22;2497;47.410;9.740;2024-02-16T03:46:16;6.60;99.90
4964;DHT22;2497;47.410;9.740;2024-02-16T03:48:44;6.60;99.90
4964;DHT22;2497;47.410;9.740;2024-02-16T03:51:11;6.60;99.90
4964;DHT22;2497;47.410;9.740;2024-02-16T03:53:39;6.60;99.90
4964;DHT22;2497;47.410;9.740;2024-02-16T03:56:06;6.60;99.90
4964;DHT22;2497;47.410;9.740;2024-02-16T03:58:33;6.60;99.90
4964;DHT22;2497;47.410;9.740;2024-02-16T04:01:00;6.70;99.90
4964;DHT22;2497;47.410;9.740;2024-02-16T04:03:27;6.80;99.90
4964;DHT22;2497;47.410;9.740;2024-02-16T04:05:56;6.80;99.90
4964;DHT22;2497;47.410;9.740;2024-02-16T04:08:25;6.90;99.90
4964;DHT22;2497;47.410;9.740;2024-02-16T04:10:52;7.00;99.90
4964;DHT22;2497;47.410;9.740;2024-02-16T04:13:19;6.90;99.90
4964;DHT22;2497;47.410;9.740;2024-02-16T04:15:46;6.90;99.90
4964;DHT22;2497;47.410;9.740;2024-02-16T04:18:13;6.90;99.90
4964;DHT22;2497;47.410;9.740;2024-02-16T04:20:44;6.80;99.90
4964;DHT22;2497;47.410;9.740;2024-02-16T04:23:12;6.80;99.90
4964;DHT22;2497;47.410;9.740;2024-02-16T04:25:39;6.70;99.90
4964;DHT22;2497;47.410;9.740;2024-02-16T04:28:07;6.70;99.90
4964;DHT22;2497;47.410;9.740;2024-02-16T04:30:35;6.60;99.90
4964;DHT22;2497;47.410;9.740;2024-02-16T04:33:02;6.60;99.90
4964;DHT22;2497;47.410;9.740;2024-02-16T04:35:30;6.70;99.90
4964;DHT22;2497;47.410;9.740;2024-02-16T04:37:57;6.70;99.90
4964;DHT22;2497;47.410;9.740;2024-02-16T04:40:25;6.60;99.90
4964;DHT22;2497;47.410;9.740;2024-02-16T04:42:52;6.40;99.90
4964;DHT22;2497;47.410;9.740;2024-02-16T04:45:23;6.40;99.90
4964;DHT22;2497;47.410;9.740;2024-02-16T04:47:50;6.50;99.90
4964;DHT22;2497;47.410;9.740;2024-02-16T04:50:17;6.40;99.90
4964;DHT22;2497;47.410;9.740;2024-02-16T04:52:44;6.30;99.90
4964;DHT22;2497;47.410;9.740;2024-02-16T04:55:11;6.40;99.90
4964;DHT22;2497;47.410;9.740;2024-02-16T04:57:40;6.30;99.90
4964;DHT22;2497;47.410;9.740;2024-02-16T05:00:07;6.20;99.90
4964;DHT22;2497;47.410;9.740;2024-02-16T05:02:36;6.10;99.90
4964;DHT22;2497;47.410;9.740;2024-02-16T05:05:03;6.10;99.90
4964;DHT22;2497;47.410;9.740;2024-02-16T05:07:30;6.10;99.90
4964;DHT22;2497;47.410;9.740;2024-02-16T05:09:58;6.10;99.90
4964;DHT22;2497;47.410;9.740;2024-02-16T05:12:46;6.10;99.90
4964;DHT22;2497;47.410;9.740;2024-02-16T05:15:13;6.20;99.90
4964;DHT22;2497;47.410;9.740;2024-02-16T05:17:41;6.50;99.90
4964;DHT22;2497;47.410;9.740;2024-02-16T05:20:10;6.80;99.90
4964;DHT22;2497;47.410;9.740;2024-02-16T05:22:41;7.20;99.90
4964;DHT22;2497;47.410;9.740;2024-02-16T05:25:09;7.30;99.90
4964;DHT22;2497;47.410;9.740;2024-02-16T05:27:37;7.50;99.90
4964;DHT22;2497;47.410;9.740;2024-02-16T05:30:08;7.80;99.90
4964;DHT22;2497;47.410;9.740;2024-02-16T05:32:36;7.70;99.90
4964;DHT22;2497;47.410;9.740;2024-02-16T05:35:03;7.40;99.90
4964;DHT22;2497;47.410;9.740;2024-02-16T05:37:37;7.10;99.90
4964;DHT22;2497;47.410;9.740;2024-02-16T05:40:08;6.90;99.90
4964;DHT22;2497;47.410;9.740;2024-02-16T05:42:46;6.70;99.90
4964;DHT22;2497;47.410;9.740;2024-02-16T05:45:14;6.50;99.90
4964;DHT22;2497;47.410;9.740;2024-02-16T05:47:41;6.40;99.90
4964;DHT22;2497;47.410;9.740;2024-02-16T05:50:11;6.30;99.90
4964;DHT22;2497;47.410;9.740;2024-02-16T05:52:38;6.20;99.90
4964;DHT22;2497;47.410;9.740;2024-02-16T05:55:08;6.00;99.90
4964;DHT22;2497;47.410;9.740;2024-02-16T05:57:35;6.00;99.90
4964;DHT22;2497;47.410;9.740;2024-02-16T06:00:01;5.90;99.90
4964;DHT22;2497;47.410;9.740;2024-02-16T06:02:31;5.80;99.90
4964;DHT22;2497;47.410;9.740;2024-02-16T06:04:58;5.70;99.90
4964;DHT22;2497;47.410;9.740;2024-02-16T06:07:26;5.70;99.90
4964;DHT22;2497;47.410;9.740;2024-02-16T06:09:55;5.70;99.90
4964;DHT22;2497;47.410;9.740;2024-02-16T06:12:23;5.60;99.90
4964;DHT22;2497;47.410;9.740;2024-02-16T06:14:50;5.60;99.90
4964;DHT22;2497;47.410;9.740;2024-02-16T06:17:19;5.50;99.90
4964;DHT22;2497;47.410;9.740;2024-02-16T06:19:47;5.50;99.90
4964;DHT22;2497;47.410;9.740;2024-02-16T06:22:14;5.40;99.90
4964;DHT22;2497;47.410;9.740;2024-02-16T06:24:41;5.40;99.90
4964;DHT22;2497;47.410;9.740;2024-02-16T06:27:10;5.40;99.90
4964;DHT22;2497;47.410;9.740;2024-02-16T06:29:37;5.40;99.90
4964;DHT22;2497;47.410;9.740;2024-02-16T06:32:04;5.40;99.90
4964;DHT22;2497;47.410;9.740;2024-02-16T06:34:31;5.40;99.90
4964;DHT22;2497;47.410;9.740;2024-02-16T06:37:00;5.50;99.90
4964;DHT22;2497;47.410;9.740;2024-02-16T06:39:27;5.50;99.90
4964;DHT22;2497;47.410;9.740;2024-02-16T06:41:56;5.60;99.90
4964;DHT22;2497;47.410;9.740;2024-02-16T06:44:23;5.60;99.90
4964;DHT22;2497;47.410;9.740;2024-02-16T06:46:50;5.60;99.90
4964;DHT22;2497;47.410;9.740;2024-02-16T06:49:17;5.70;99.90
4964;DHT22;2497;47.410;9.740;2024-02-16T06:51:44;5.90;99.90
4964;DHT22;2497;47.410;9.740;2024-02-16T06:54:13;6.10;99.90
4964;DHT22;2497;47.410;9.740;2024-02-16T06:56:40;6.10;99.90
4964;DHT22;2497;47.410;9.740;2024-02-16T06:59:07;6.10;99.90
4964;DHT22;2497;47.410;9.740;2024-02-16T07:01:35;6.10;99.90
4964;DHT22;2497;47.410;9.740;2024-02-16T07:04:02;6.00;99.90
4964;DHT22;2497;47.410;9.740;2024-02-16T07:06:29;6.10;99.90
4964;DHT22;2497;47.410;9.740;2024-02-16T07:08:56;6.20;99.90
4964;DHT22;2497;47.410;9.740;2024-02-16T07:11:24;6.20;99.90
4964;DHT22;2497;47.410;9.740;2024-02-16T07:13:51;6.40;99.90
4964;DHT22;2497;47.410;9.740;2024-02-16T07:16:18;6.50;99.90
4964;DHT22;2497;47.410;9.740;2024-02-16T07:18:45;6.80;99.90
4964;DHT22;2497;47.410;9.740;2024-02-16T07:21:13;7.00;99.90
4964;DHT22;2497;47.410;9.740;2024-02-16T07:23:40;7.20;99.90
4964;DHT22;2497;47.410;9.740;2024-02-16T07:26:07;7.10;99.90
4964;DHT22;2497;47.410;9.740;2024-02-16T07:28:35;7.00;99.90
4964;DHT22;2497;47.410;9.740;2024-02-16T07:31:02;7.00;99.90
4964;DHT22;2497;47.410;9.740;2024-02-16T07:33:30;7.10;99.90
4964;DHT22;2497;47.410;9.740;2024-02-16T07:35:57;7.10;99.90
4964;DHT22;2497;47.410;9.740;2024-02-16T07:38:24;7.20;99.90
4964;DHT22;2497;47.410;9.740;2024-02-16T07:40:53;7.20;99.90
4964;DHT22;2497;47.410;9.740;2024-02-16T07:43:20;7.20;99.90
4964;DHT22;2497;47.410;9.740;2024-02-16T07:45:49;7.20;99.90
4964;DHT22;2497;47.410;9.740;2024-02-16T07:48:16;7.20;99.90
4964;DHT22;2497;47.410;9.740;2024-02-16T07:50:43;7.30;99.90
4964;DHT22;2497;47.410;9.740;2024-02-16T07:53:10;7.40;99.90
4964;DHT22;2497;47.410;9.740;2024-02-16T07:55:37;7.40;99.90
4964;DHT22;2497;47.410;9.740;2024-02-16T07:58:04;7.50;99.90
4964;DHT22;2497;47.410;9.740;2024-02-16T08:00:33;7.50;99.90
4964;DHT22;2497;47.410;9.740;2024-02-16T08:03:01;7.40;99.90
4964;DHT22;2497;47.410;9.740;2024-02-16T08:05:29;7.40;99.90
4964;DHT22;2497;47.410;9.740;2024-02-16T08:07:56;7.50;99.90
4964;DHT22;2497;47.410;9.740;2024-02-16T08:10:23;7.50;99.90
4964;DHT22;2497;47.410;9.740;2024-02-16T08:12:51;7.60;99.90
4964;DHT22;2497;47.410;9.740;2024-02-16T08:15:19;7.70;99.90
4964;DHT22;2497;47.410;9.740;2024-02-16T08:17:49;7.70;99.90
4964;DHT22;2497;47.410;9.740;2024-02-16T08:20:18;7.80;99.90
4964;DHT22;2497;47.410;9.740;2024-02-16T08:22:46;7.90;99.90
4964;DHT22;2497;47.410;9.740;2024-02-16T08:25:13;7.90;99.90
4964;DHT22;2497;47.410;9.740;2024-02-16T08:27:40;7.90;99.90
4964;DHT22;2497;47.410;9.740;2024-02-16T08:30:08;8.00;99.90
4964;DHT22;2497;47.410;9.740;2024-02-16T08:32:35;8.20;99.90
4964;DHT22;2497;47.410;9.740;2024-02-16T08:35:03;8.30;99.90
4964;DHT22;2497;47.410;9.740;2024-02-16T08:37:31;8.50;99.90
4964;DHT22;2497;47.410;9.740;2024-02-16T08:39:59;8.60;99.90
4964;DHT22;2497;47.410;9.740;2024-02-16T08:42:26;8.90;99.90
4964;DHT22;2497;47.410;9.740;2024-02-16T08:44:53;9.10;99.90
4964;DHT22;2497;47.410;9.740;2024-02-16T08:47:20;9.30;99.90
4964;DHT22;2497;47.410;9.740;2024-02-16T08:49:47;9.50;99.90
4964;DHT22;2497;47.410;9.740;2024-02-16T08:52:14;9.70;99.90
4964;DHT22;2497;47.410;9.740;2024-02-16T08:54:44;9.90;99.90
4964;DHT22;2497;47.410;9.740;2024-02-16T08:57:11;10.00;99.90
4964;DHT22;2497;47.410;9.740;2024-02-16T08:59:38;10.10;99.90
4964;DHT22;2497;47.410;9.740;2024-02-16T09:02:05;10.10;99.90
4964;DHT22;2497;47.410;9.740;2024-02-16T09:04:32;10.10;99.90
4964;DHT22;2497;47.410;9.740;2024-02-16T09:06:59;10.10;99.90
4964;DHT22;2497;47.410;9.740;2024-02-16T09:09:27;10.20;99.90
4964;DHT22;2497;47.410;9.740;2024-02-16T09:11:55;10.20;99.90
4964;DHT22;2497;47.410;9.740;2024-02-16T09:14:23;10.20;99.90
4964;DHT22;2497;47.410;9.740;2024-02-16T09:16:50;10.40;99.90
4964;DHT22;2497;47.410;9.740;2024-02-16T09:19:18;10.40;99.90
4964;DHT22;2497;47.410;9.740;2024-02-16T09:21:45;10.40;99.90
4964;DHT22;2497;47.410;9.740;2024-02-16T09:24:12;10.50;99.90
4964;DHT22;2497;47.410;9.740;2024-02-16T09:26:43;10.30;99.90
4964;DHT22;2497;47.410;9.740;2024-02-16T09:29:13;10.40;99.90
4964;DHT22;2497;47.410;9.740;2024-02-16T09:31:41;10.40;99.90
4964;DHT22;2497;47.410;9.740;2024-02-16T09:34:08;10.60;99.90
4964;DHT22;2497;47.410;9.740;2024-02-16T09:36:35;10.60;99.90
4964;DHT22;2497;47.410;9.740;2024-02-16T09:39:06;10.70;99.90
4964;DHT22;2497;47.410;9.740;2024-02-16T09:41:34;10.80;99.90
4964;DHT22;2497;47.410;9.740;2024-02-16T09:44:02;10.90;99.90
4964;DHT22;2497;47.410;9.740;2024-02-16T09:46:31;11.10;99.90
4964;DHT22;2497;47.410;9.740;2024-02-16T09:49:01;11.20;99.90
4964;DHT22;2497;47.410;9.740;2024-02-16T09:51:29;11.40;99.90
4964;DHT22;2497;47.410;9.740;2024-02-16T09:53:56;11.60;99.90
4964;DHT22;2497;47.410;9.740;2024-02-16T09:56:25;11.80;99.90
4964;DHT22;2497;47.410;9.740;2024-02-16T09:58:53;12.10;99.90
4964;DHT22;2497;47.410;9.740;2024-02-16T10:01:21;12.10;99.90
4964;DHT22;2497;47.410;9.740;2024-02-16T10:03:53;12.20;99.90
4964;DHT22;2497;47.410;9.740;2024-02-16T10:06:20;12.40;99.90
4964;DHT22;2497;47.410;9.740;2024-02-16T10:08:48;12.60;99.90
4964;DHT22;2497;47.410;9.740;2024-02-16T10:11:16;12.60;99.90
4964;DHT22;2497;47.410;9.740;2024-02-16T10:13:54;12.60;99.90
4964;DHT22;2497;47.410;9.740;2024-02-16T10:16:21;12.70;99.90
4964;DHT22;2497;47.410;9.740;2024-02-16T10:18:50;12.80;99.90
4964;DHT22;2497;47.410;9.740;2024-02-16T10:21:24;13.00;99.90
4964;DHT22;2497;47.410;9.740;2024-02-16T10:24:00;13.00;99.90
4964;DHT22;2497;47.410;9.740;2024-02-16T10:26:30;13.10;99.90
4964;DHT22;2497;47.410;9.740;2024-02-16T10:28:58;13.30;99.90
4964;DHT22;2497;47.410;9.740;2024-02-16T10:31:26;13.40;99.90
4964;DHT22;2497;47.410;9.740;2024-02-16T10:33:58;13.40;99.90
4964;DHT22;2497;47.410;9.740;2024-02-16T10:36:27;13.60;99.90
4964;DHT22;2497;47.410;9.740;2024-02-16T10:38:55;13.80;99.90
4964;DHT22;2497;47.410;9.740;2024-02-16T10:41:26;13.80;99.90
4964;DHT22;2497;47.410;9.740;2024-02-16T10:43:54;14.10;99.90
4964;DHT22;2497;47.410;9.740;2024-02-16T10:46:22;14.40;99.90
4964;DHT22;2497;47.410;9.740;2024-02-16T10:48:50;14.60;99.90
4964;DHT22;2497;47.410;9.740;2024-02-16T10:51:23;15.00;99.90
4964;DHT22;2497;47.410;9.740;2024-02-16T10:53:52;15.00;99.90
4964;DHT22;2497;47.410;9.740;2024-02-16T10:56:35;15.30;99.90
4964;DHT22;2497;47.410;9.740;2024-02-16T10:59:03;15.60;99.90
4964;DHT22;2497;47.410;9.740;2024-02-16T11:01:37;15.70;99.90
4964;DHT22;2497;47.410;9.740;2024-02-16T11:04:05;15.80;99.90
4964;DHT22;2497;47.410;9.740;2024-02-16T11:06:46;15.80;99.90
4964;DHT22;2497;47.410;9.740;2024-02-16T11:09:25;15.80;99.90
4964;DHT22;2497;47.410;9.740;2024-02-16T11:11:53;16.10;99.90
4964;DHT22;2497;47.410;9.740;2024-02-16T11:14:21;16.50;99.90
4964;DHT22;2497;47.410;9.740;2024-02-16T11:16:53;16.60;99.90
4964;DHT22;2497;47.410;9.740;2024-02-16T11:19:22;16.60;99.90
4964;DHT22;2497;47.410;9.740;2024-02-16T11:21:58;16.80;99.90
4964;DHT22;2497;47.410;9.740;2024-02-16T11:24:31;17.00;99.90
4964;DHT22;2497;47.410;9.740;2024-02-16T11:27:01;17.20;99.90
4964;DHT22;2497;47.410;9.740;2024-02-16T11:29:33;17.40;99.90
4964;DHT22;2497;47.410;9.740;2024-02-16T11:32:01;17.40;99.90
4964;DHT22;2497;47.410;9.740;2024-02-16T11:34:29;17.40;99.90
4964;DHT22;2497;47.410;9.740;2024-02-16T11:36:58;16.90;99.90
4964;DHT22;2497;47.410;9.740;2024-02-16T11:39:26;17.30;99.90
4964;DHT22;2497;47.410;9.740;2024-02-16T11:42:02;17.30;99.90
4964;DHT22;2497;47.410;9.740;2024-02-16T11:44:30;17.40;99.90
4964;DHT22;2497;47.410;9.740;2024-02-16T11:46:58;17.40;99.90
4964;DHT22;2497;47.410;9.740;2024-02-16T11:49:27;17.30;99.90
4964;DHT22;2497;47.410;9.740;2024-02-16T11:51:54;17.60;99.90
4964;DHT22;2497;47.410;9.740;2024-02-16T11:54:23;17.60;99.90
4964;DHT22;2497;47.410;9.740;2024-02-16T11:56:51;18.00;99.90
4964;DHT22;2497;47.410;9.740;2024-02-16T11:59:19;18.00;99.90
4964;DHT22;2497;47.410;9.740;2024-02-16T12:01:50;18.10;99.90
4964;DHT22;2497;47.410;9.740;2024-02-16T12:04:22;18.20;99.90
4964;DHT22;2497;47.410;9.740;2024-02-16T12:06:55;18.30;99.90
4964;DHT22;2497;47.410;9.740;2024-02-16T12:09:24;18.30;99.90
4964;DHT22;2497;47.410;9.740;2024-02-16T12:11:52;18.40;99.90
4964;DHT22;2497;47.410;9.740;2024-02-16T12:14:21;18.20;99.90
4964;DHT22;2497;47.410;9.740;2024-02-16T12:16:48;18.40;99.90
4964;DHT22;2497;47.410;9.740;2024-02-16T12:19:15;18.70;99.90
4964;DHT22;2497;47.410;9.740;2024-02-16T12:21:42;18.80;99.90
4964;DHT22;2497;47.410;9.740;2024-02-16T12:24:09;19.00;99.90
4964;DHT22;2497;47.410;9.740;2024-02-16T12:26:38;18.70;99.90
4964;DHT22;2497;47.410;9.740;2024-02-16T12:29:06;19.20;99.90
4964;DHT22;2497;47.410;9.740;2024-02-16T12:31:34;19.20;99.90
4964;DHT22;2497;47.410;9.740;2024-02-16T12:34:03;19.30;99.90
4964;DHT22;2497;47.410;9.740;2024-02-16T12:36:32;19.40;99.90
4964;DHT22;2497;47.410;9.740;2024-02-16T12:39:00;19.60;99.90
4964;DHT22;2497;47.410;9.740;2024-02-16T12:41:29;19.30;99.90
4964;DHT22;2497;47.410;9.740;2024-02-16T12:43:57;19.20;99.90
4964;DHT22;2497;47.410;9.740;2024-02-16T12:46:25;19.30;99.90
4964;DHT22;2497;47.410;9.740;2024-02-16T12:48:53;19.60;99.90
4964;DHT22;2497;47.410;9.740;2024-02-16T12:51:21;19.60;99.90
4964;DHT22;2497;47.410;9.740;2024-02-16T12:53:48;19.40;99.90
4964;DHT22;2497;47.410;9.740;2024-02-16T12:56:15;19.40;99.90
4964;DHT22;2497;47.410;9.740;2024-02-16T12:58:44;19.50;99.90
4964;DHT22;2497;47.410;9.740;2024-02-16T13:01:12;19.90;99.90
4964;DHT22;2497;47.410;9.740;2024-02-16T13:03:39;19.90;99.90
4964;DHT22;2497;47.410;9.740;2024-02-16T13:06:08;20.00;99.90
4964;DHT22;2497;47.410;9.740;2024-02-16T13:08:36;20.20;99.90
4964;DHT22;2497;47.410;9.740;2024-02-16T13:11:03;20.20;99.90
4964;DHT22;2497;47.410;9.740;2024-02-16T13:13:33;20.30;99.90
4964;DHT22;2497;47.410;9.740;2024-02-16T13:16:00;20.20;99.90
4964;DHT22;2497;47.410;9.740;2024-02-16T13:18:29;20.50;99.90
4964;DHT22;2497;47.410;9.740;2024-02-16T13:20:56;20.40;99.90
4964;DHT22;2497;47.410;9.740;2024-02-16T13:23:23;20.10;99.90
4964;DHT22;2497;47.410;9.740;2024-02-16T13:25:50;20.40;99.90
4964;DHT22;2497;47.410;9.740;2024-02-16T13:28:17;20.60;99.90
4964;DHT22;2497;47.410;9.740;2024-02-16T13:30:45;20.40;99.90
4964;DHT22;2497;47.410;9.740;2024-02-16T13:33:12;20.60;99.90
4964;DHT22;2497;47.410;9.740;2024-02-16T13:35:40;20.60;99.90
4964;DHT22;2497;47.410;9.740;2024-02-16T13:38:07;20.50;99.90
4964;DHT22;2497;47.410;9.740;2024-02-16T13:40:34;20.40;99.90
4964;DHT22;2497;47.410;9.740;2024-02-16T13:43:01;20.20;99.90
4964;DHT22;2497;47.410;9.740;2024-02-16T13:45:47;20.10;99.90
4964;DHT22;2497;47.410;9.740;2024-02-16T13:48:17;20.20;99.90
4964;DHT22;2497;47.410;9.740;2024-02-16T13:50:46;19.90;99.90
4964;DHT22;2497;47.410;9.740;2024-02-16T13:53:13;19.80;99.90
4964;DHT22;2497;47.410;9.740;2024-02-16T13:55:41;19.80;99.90
4964;DHT22;2497;47.410;9.740;2024-02-16T13:58:09;19.70;99.90
4964;DHT22;2497;47.410;9.740;2024-02-16T14:00:36;19.70;99.90
4964;DHT22;2497;47.410;9.740;2024-02-16T14:03:04;20.20;99.90
4964;DHT22;2497;47.410;9.740;2024-02-16T14:05:34;19.70;99.90
4964;DHT22;2497;47.410;9.740;2024-02-16T14:08:03;19.90;99.90
4964;DHT22;2497;47.410;9.740;2024-02-16T14:10:30;19.90;99.90
4964;DHT22;2497;47.410;9.740;2024-02-16T14:12:57;20.00;99.90
4964;DHT22;2497;47.410;9.740;2024-02-16T14:15:25;19.60;99.90
4964;DHT22;2497;47.410;9.740;2024-02-16T14:17:52;19.80;99.90
4964;DHT22;2497;47.410;9.740;2024-02-16T14:20:19;20.30;99.90
4964;DHT22;2497;47.410;9.740;2024-02-16T14:22:47;20.30;99.90
4964;DHT22;2497;47.410;9.740;2024-02-16T14:25:16;20.40;99.90
4964;DHT22;2497;47.410;9.740;2024-02-16T14:27:44;20.60;99.90
4964;DHT22;2497;47.410;9.740;2024-02-16T14:30:12;20.50;99.90
4964;DHT22;2497;47.410;9.740;2024-02-16T14:32:39;20.60;99.90
4964;DHT22;2497;47.410;9.740;2024-02-16T14:35:07;20.70;99.90
4964;DHT22;2497;47.410;9.740;2024-02-16T14:37:35;20.40;99.90
4964;DHT22;2497;47.410;9.740;2024-02-16T14:40:02;20.50;99.90
4964;DHT22;2497;47.410;9.740;2024-02-16T14:42:32;20.30;99.90
4964;DHT22;2497;47.410;9.740;2024-02-16T14:44:59;19.90;99.90
4964;DHT22;2497;47.410;9.740;2024-02-16T14:47:28;19.70;99.90
4964;DHT22;2497;47.410;9.740;2024-02-16T14:49:55;19.50;99.90
4964;DHT22;2497;47.410;9.740;2024-02-16T14:52:22;19.50;99.90
4964;DHT22;2497;47.410;9.740;2024-02-16T14:54:49;19.90;99.90
4964;DHT22;2497;47.410;9.740;2024-02-16T14:57:16;20.00;99.90
4964;DHT22;2497;47.410;9.740;2024-02-16T14:59:47;20.50;99.90
4964;DHT22;2497;47.410;9.740;2024-02-16T15:02:14;20.30;99.90
4964;DHT22;2497;47.410;9.740;2024-02-16T15:04:42;20.30;99.90
4964;DHT22;2497;47.410;9.740;2024-02-16T15:07:09;20.10;99.90
4964;DHT22;2497;47.410;9.740;2024-02-16T15:09:36;20.00;99.90
4964;DHT22;2497;47.410;9.740;2024-02-16T15:12:04;19.90;99.90
4964;DHT22;2497;47.410;9.740;2024-02-16T15:14:32;19.60;99.90
4964;DHT22;2497;47.410;9.740;2024-02-16T15:17:01;19.40;99.90
4964;DHT22;2497;47.410;9.740;2024-02-16T15:19:28;19.20;99.90
4964;DHT22;2497;47.410;9.740;2024-02-16T15:21:55;19.10;99.90
4964;DHT22;2497;47.410;9.740;2024-02-16T15:24:22;18.80;99.90
4964;DHT22;2497;47.410;9.740;2024-02-16T15:26:49;18.60;99.90
4964;DHT22;2497;47.410;9.740;2024-02-16T15:29:16;18.50;99.90
4964;DHT22;2497;47.410;9.740;2024-02-16T15:31:43;18.30;99.90
4964;DHT22;2497;47.410;9.740;2024-02-16T15:34:12;18.10;99.90
4964;DHT22;2497;47.410;9.740;2024-02-16T15:36:39;17.90;99.90
4964;DHT22;2497;47.410;9.740;2024-02-16T15:39:06;17.90;99.90
4964;DHT22;2497;47.410;9.740;2024-02-16T15:41:34;17.80;99.90
4964;DHT22;2497;47.410;9.740;2024-02-16T15:44:02;17.70;99.90
4964;DHT22;2497;47.410;9.740;2024-02-16T15:46:29;17.60;99.90
4964;DHT22;2497;47.410;9.740;2024-02-16T15:48:56;17.60;99.90
4964;DHT22;2497;47.410;9.740;2024-02-16T15:51:27;17.60;99.90
4964;DHT22;2497;47.410;9.740;2024-02-16T15:53:54;17.70;99.90
4964;DHT22;2497;47.410;9.740;2024-02-16T15:56:21;17.80;99.90
4964;DHT22;2497;47.410;9.740;2024-02-16T15:58:49;17.90;99.90
4964;DHT22;2497;47.410;9.740;2024-02-16T16:01:24;17.80;99.90
4964;DHT22;2497;47.410;9.740;2024-02-16T16:03:51;17.60;99.90
4964;DHT22;2497;47.410;9.740;2024-02-16T16:06:18;17.30;99.90
4964;DHT22;2497;47.410;9.740;2024-02-16T16:08:47;16.90;99.90
4964;DHT22;2497;47.410;9.740;2024-02-16T16:11:15;16.70;99.90
4964;DHT22;2497;47.410;9.740;2024-02-16T16:13:42;16.50;99.90